createdAt,value
2022-12-17T00:00:35.682Z,16
2022-12-17T00:01:35.672Z,16
2022-12-17T00:02:35.659Z,16
2022-12-17T00:03:35.649Z,20
2022-12-17T00:04:35.658Z,20
2022-12-17T00:05:35.634Z,20
2022-12-17T00:06:35.636Z,20
2022-12-17T00:07:35.612Z,16
2022-12-17T00:08:35.633Z,20
2022-12-17T00:09:35.583Z,16
2022-12-17T00:10:35.630Z,20
2022-12-17T00:11:35.567Z,20
2022-12-17T00:12:35.560Z,20
2022-12-17T00:13:35.544Z,20
2022-12-17T00:14:35.540Z,20
2022-12-17T00:15:35.914Z,20
2022-12-17T00:16:35.513Z,20
2022-12-17T00:17:35.517Z,20
2022-12-17T00:18:35.495Z,20
2022-12-17T00:19:35.497Z,20
2022-12-17T00:20:35.502Z,20
2022-12-17T00:21:35.463Z,20
2022-12-17T00:22:35.457Z,20
2022-12-17T00:23:35.447Z,20
2022-12-17T00:24:35.437Z,20
2022-12-17T00:25:35.422Z,20
2022-12-17T00:26:35.415Z,20
2022-12-17T00:27:35.416Z,20
2022-12-17T00:28:35.407Z,20
2022-12-17T00:29:35.386Z,20
2022-12-17T00:30:35.376Z,20
2022-12-17T00:31:35.385Z,20
2022-12-17T00:32:35.353Z,20
2022-12-17T00:33:35.340Z,20
2022-12-17T00:34:35.334Z,20
2022-12-17T00:35:35.327Z,20
2022-12-17T00:36:35.333Z,20
2022-12-17T00:37:35.475Z,20
2022-12-17T00:38:35.297Z,20
2022-12-17T00:39:35.281Z,20
2022-12-17T00:40:35.278Z,20
2022-12-17T00:41:35.263Z,20
2022-12-17T00:42:35.249Z,20
2022-12-17T00:43:35.276Z,20
2022-12-17T00:44:35.233Z,20
2022-12-17T00:45:35.229Z,20
2022-12-17T00:46:35.211Z,20
2022-12-17T00:47:35.205Z,20
2022-12-17T00:48:35.205Z,20
2022-12-17T00:49:35.193Z,20
2022-12-17T00:50:35.172Z,20
2022-12-17T00:51:35.177Z,20
2022-12-17T00:52:35.154Z,20
2022-12-17T00:53:35.156Z,20
2022-12-17T00:54:35.128Z,20
2022-12-17T00:55:35.123Z,20
2022-12-17T00:56:35.113Z,20
2022-12-17T00:57:35.101Z,20
2022-12-17T00:58:35.093Z,20
2022-12-17T00:59:35.079Z,20
2022-12-17T01:00:35.076Z,20
2022-12-17T01:01:35.062Z,20
2022-12-17T01:02:35.051Z,20
2022-12-17T01:03:35.042Z,20
2022-12-17T01:04:35.028Z,20
2022-12-17T01:05:35.057Z,20
2022-12-17T01:06:35.009Z,20
2022-12-17T01:07:34.996Z,20
2022-12-17T01:08:34.993Z,20
2022-12-17T01:09:34.993Z,20
2022-12-17T01:10:34.970Z,20
2022-12-17T01:11:34.964Z,20
2022-12-17T01:12:34.947Z,20
2022-12-17T01:13:34.939Z,20
2022-12-17T01:14:34.929Z,20
2022-12-17T01:15:34.917Z,20
2022-12-17T01:16:34.913Z,20
2022-12-17T01:17:34.901Z,20
2022-12-17T01:18:34.887Z,20
2022-12-17T01:19:34.877Z,20
2022-12-17T01:20:34.897Z,20
2022-12-17T01:21:34.867Z,20
2022-12-17T01:22:42.836Z,20
2022-12-17T01:23:43.687Z,20
2022-12-17T01:24:43.720Z,20
2022-12-17T01:25:43.685Z,20
2022-12-17T01:27:54.294Z,20
2022-12-17T01:29:02.847Z,20
2022-12-17T01:30:03.732Z,20
2022-12-17T01:31:03.326Z,20
2022-12-17T01:31:53.994Z,20
2022-12-17T01:32:53.974Z,20
2022-12-17T01:33:53.978Z,20
2022-12-17T01:34:53.950Z,20
2022-12-17T01:36:02.778Z,20
2022-12-17T01:37:02.757Z,20
2022-12-17T01:38:02.894Z,20
2022-12-17T01:38:53.923Z,20
2022-12-17T01:39:53.903Z,20
2022-12-17T01:41:02.721Z,20
2022-12-17T01:41:53.884Z,20
2022-12-17T01:43:03.006Z,20
2022-12-17T01:43:53.870Z,20
2022-12-17T01:44:53.849Z,20
2022-12-17T01:45:53.865Z,20
2022-12-17T01:47:01.507Z,20
2022-12-17T01:48:03.810Z,20
2022-12-17T01:49:02.623Z,20
2022-12-17T01:50:02.745Z,20
2022-12-17T01:51:01.653Z,20
2022-12-17T01:52:02.778Z,20
2022-12-17T01:52:53.767Z,20
2022-12-17T01:54:02.570Z,20
2022-12-17T01:55:02.726Z,20
2022-12-17T01:55:53.744Z,20
2022-12-17T01:57:02.562Z,20
2022-12-17T01:57:53.719Z,20
2022-12-17T01:58:53.712Z,20
2022-12-17T01:59:53.791Z,20
2022-12-17T02:00:53.710Z,20
2022-12-17T02:01:53.693Z,20
2022-12-17T02:02:53.666Z,20
2022-12-17T02:03:53.653Z,20
2022-12-17T02:04:53.646Z,20
2022-12-17T02:05:53.718Z,20
2022-12-17T02:06:53.630Z,20
2022-12-17T02:07:53.617Z,20
2022-12-17T02:08:53.634Z,20
2022-12-17T02:09:53.594Z,20
2022-12-17T02:10:53.602Z,20
2022-12-17T02:11:53.633Z,20
2022-12-17T02:12:53.567Z,20
2022-12-17T02:13:53.562Z,20
2022-12-17T02:14:53.551Z,20
2022-12-17T02:15:53.529Z,20
2022-12-17T02:16:53.530Z,20
2022-12-17T02:17:53.515Z,20
2022-12-17T02:18:53.496Z,20
2022-12-17T02:19:53.491Z,20
2022-12-17T02:20:53.520Z,20
2022-12-17T02:21:53.506Z,20
2022-12-17T02:22:53.458Z,20
2022-12-17T02:23:53.454Z,20
2022-12-17T02:24:53.441Z,20
2022-12-17T02:25:53.430Z,20
2022-12-17T02:26:53.416Z,20
2022-12-17T02:27:53.412Z,20
2022-12-17T02:28:53.396Z,20
2022-12-17T02:29:53.388Z,20
2022-12-17T02:30:53.377Z,20
2022-12-17T02:31:53.366Z,20
2022-12-17T02:32:53.358Z,20
2022-12-17T02:33:53.351Z,20
2022-12-17T02:34:53.337Z,20
2022-12-17T02:35:53.323Z,20
2022-12-17T02:36:53.317Z,20
2022-12-17T02:37:53.301Z,20
2022-12-17T02:38:53.292Z,20
2022-12-17T02:39:53.285Z,20
2022-12-17T02:40:53.275Z,20
2022-12-17T02:41:53.264Z,20
2022-12-17T02:42:53.251Z,20
2022-12-17T02:43:53.260Z,20
2022-12-17T02:44:53.233Z,20
2022-12-17T02:45:53.248Z,20
2022-12-17T02:46:54.214Z,20
2022-12-17T02:47:53.198Z,20
2022-12-17T02:48:53.192Z,20
2022-12-17T02:49:53.188Z,20
2022-12-17T02:50:53.209Z,20
2022-12-17T02:51:53.188Z,20
2022-12-17T02:52:53.153Z,20
2022-12-17T02:53:53.139Z,20
2022-12-17T02:54:53.132Z,20
2022-12-17T02:55:53.116Z,20
2022-12-17T02:56:53.121Z,20
2022-12-17T02:57:53.148Z,20
2022-12-17T02:58:53.088Z,20
2022-12-17T02:59:53.083Z,20
2022-12-17T03:00:53.062Z,20
2022-12-17T03:01:53.077Z,20
2022-12-17T03:02:53.040Z,20
2022-12-17T03:03:53.091Z,20
2022-12-17T03:04:53.022Z,20
2022-12-17T03:05:53.011Z,20
2022-12-17T03:06:53.027Z,20
2022-12-17T03:07:52.998Z,20
2022-12-17T03:08:52.980Z,20
2022-12-17T03:09:52.974Z,20
2022-12-17T03:10:52.960Z,20
2022-12-17T03:11:52.996Z,20
2022-12-17T03:12:52.943Z,20
2022-12-17T03:13:52.933Z,20
2022-12-17T03:14:52.970Z,20
2022-12-17T03:15:52.915Z,20
2022-12-17T03:16:52.914Z,20
2022-12-17T03:17:53.075Z,20
2022-12-17T03:18:52.879Z,20
2022-12-17T03:19:52.866Z,20
2022-12-17T03:20:52.859Z,20
2022-12-17T03:21:52.882Z,20
2022-12-17T03:22:52.840Z,20
2022-12-17T03:23:52.830Z,20
2022-12-17T03:24:52.819Z,20
2022-12-17T03:25:52.807Z,20
2022-12-17T03:26:52.841Z,20
2022-12-17T03:27:52.800Z,20
2022-12-17T03:28:52.818Z,20
2022-12-17T03:29:52.766Z,20
2022-12-17T03:30:52.757Z,20
2022-12-17T03:31:52.744Z,20
2022-12-17T03:32:52.745Z,20
2022-12-17T03:33:52.723Z,20
2022-12-17T03:34:52.716Z,20
2022-12-17T03:35:52.705Z,20
2022-12-17T03:36:52.866Z,20
2022-12-17T03:37:52.698Z,20
2022-12-17T03:38:52.783Z,20
2022-12-17T03:39:52.672Z,20
2022-12-17T03:40:52.652Z,20
2022-12-17T03:41:52.642Z,20
2022-12-17T03:42:52.633Z,20
2022-12-17T03:43:52.643Z,20
2022-12-17T03:44:52.762Z,20
2022-12-17T03:45:52.598Z,20
2022-12-17T03:46:52.592Z,20
2022-12-17T03:47:52.590Z,20
2022-12-17T03:48:52.574Z,20
2022-12-17T03:49:52.561Z,20
2022-12-17T03:50:52.543Z,20
2022-12-17T03:51:52.535Z,20
2022-12-17T03:52:52.530Z,20
2022-12-17T03:53:52.515Z,20
2022-12-17T03:54:52.525Z,20
2022-12-17T03:55:52.493Z,20
2022-12-17T03:56:52.484Z,20
2022-12-17T03:57:52.511Z,20
2022-12-17T03:58:52.462Z,20
2022-12-17T03:59:52.790Z,20
2022-12-17T04:00:52.447Z,28
2022-12-17T04:01:52.428Z,28
2022-12-17T04:02:52.486Z,28
2022-12-17T04:03:52.416Z,28
2022-12-17T04:04:52.398Z,28
2022-12-17T04:05:52.475Z,28
2022-12-17T04:06:52.382Z,28
2022-12-17T04:07:52.463Z,28
2022-12-17T04:08:52.364Z,28
2022-12-17T04:09:52.357Z,28
2022-12-17T04:10:52.335Z,28
2022-12-17T04:11:52.328Z,28
2022-12-17T04:12:52.316Z,28
2022-12-17T04:13:52.303Z,28
2022-12-17T04:14:52.294Z,28
2022-12-17T04:15:52.286Z,28
2022-12-17T04:16:52.281Z,28
2022-12-17T04:17:52.282Z,28
2022-12-17T04:18:52.255Z,28
2022-12-17T04:19:52.274Z,28
2022-12-17T04:20:52.237Z,28
2022-12-17T04:21:52.224Z,28
2022-12-17T04:22:52.210Z,28
2022-12-17T04:23:52.210Z,28
2022-12-17T04:24:52.205Z,28
2022-12-17T04:25:52.193Z,28
2022-12-17T04:26:52.173Z,28
2022-12-17T04:27:52.166Z,28
2022-12-17T04:28:52.166Z,28
2022-12-17T04:29:52.160Z,28
2022-12-17T04:30:52.144Z,28
2022-12-17T04:31:52.177Z,28
2022-12-17T04:32:52.108Z,28
2022-12-17T04:33:52.095Z,28
2022-12-17T04:34:52.110Z,24
2022-12-17T04:35:52.078Z,28
2022-12-17T04:36:52.065Z,28
2022-12-17T04:37:52.061Z,28
2022-12-17T04:38:52.050Z,28
2022-12-17T04:39:52.038Z,28
2022-12-17T04:40:52.048Z,28
2022-12-17T04:41:52.028Z,28
2022-12-17T04:42:52.006Z,28
2022-12-17T04:43:52.006Z,28
2022-12-17T04:44:51.991Z,28
2022-12-17T04:45:51.978Z,28
2022-12-17T04:46:51.974Z,28
2022-12-17T04:47:51.956Z,28
2022-12-17T04:48:51.942Z,28
2022-12-17T04:49:51.934Z,28
2022-12-17T04:50:51.986Z,28
2022-12-17T04:51:51.921Z,28
2022-12-17T04:52:51.915Z,28
2022-12-17T04:53:51.945Z,28
2022-12-17T04:54:51.913Z,28
2022-12-17T04:55:51.872Z,28
2022-12-17T04:56:51.865Z,28
2022-12-17T04:57:51.851Z,28
2022-12-17T04:58:51.846Z,28
2022-12-17T04:59:51.832Z,28
2022-12-17T05:00:51.818Z,28
2022-12-17T05:01:51.808Z,28
2022-12-17T05:02:51.900Z,28
2022-12-17T05:03:51.792Z,28
2022-12-17T05:04:51.777Z,28
2022-12-17T05:05:51.770Z,24
2022-12-17T05:06:51.755Z,28
2022-12-17T05:07:51.760Z,28
2022-12-17T05:08:51.741Z,28
2022-12-17T05:09:51.731Z,28
2022-12-17T05:10:51.716Z,28
2022-12-17T05:11:51.723Z,28
2022-12-17T05:12:51.705Z,28
2022-12-17T05:13:51.708Z,28
2022-12-17T05:14:51.685Z,28
2022-12-17T05:15:51.665Z,28
2022-12-17T05:16:51.666Z,28
2022-12-17T05:17:51.649Z,28
2022-12-17T05:18:51.636Z,28
2022-12-17T05:19:51.630Z,28
2022-12-17T05:20:51.621Z,28
2022-12-17T05:21:51.622Z,28
2022-12-17T05:22:51.600Z,28
2022-12-17T05:23:51.849Z,24
2022-12-17T05:24:51.619Z,28
2022-12-17T05:25:51.564Z,28
2022-12-17T05:26:51.558Z,28
2022-12-17T05:27:51.542Z,28
2022-12-17T05:28:51.530Z,28
2022-12-17T05:29:51.568Z,28
2022-12-17T05:30:51.521Z,28
2022-12-17T05:31:51.506Z,28
2022-12-17T05:32:51.503Z,28
2022-12-17T05:33:51.732Z,28
2022-12-17T05:34:51.623Z,28
2022-12-17T05:35:51.465Z,28
2022-12-17T05:36:51.454Z,28
2022-12-17T05:37:51.438Z,28
2022-12-17T05:38:51.432Z,28
2022-12-17T05:39:51.432Z,28
2022-12-17T05:40:51.413Z,28
2022-12-17T05:41:51.406Z,28
2022-12-17T05:42:51.389Z,28
2022-12-17T05:43:51.387Z,28
2022-12-17T05:44:51.374Z,28
2022-12-17T05:45:51.365Z,24
2022-12-17T05:46:51.354Z,28
2022-12-17T05:47:51.342Z,28
2022-12-17T05:48:51.328Z,28
2022-12-17T05:49:51.352Z,28
2022-12-17T05:50:51.328Z,28
2022-12-17T05:51:51.299Z,28
2022-12-17T05:52:51.289Z,28
2022-12-17T05:53:51.280Z,28
2022-12-17T05:54:51.268Z,28
2022-12-17T05:55:51.263Z,28
2022-12-17T05:56:51.246Z,28
2022-12-17T05:57:51.238Z,28
2022-12-17T05:58:51.237Z,28
2022-12-17T05:59:51.216Z,28
2022-12-17T06:00:51.205Z,28
2022-12-17T06:01:51.203Z,24
2022-12-17T06:02:51.191Z,28
2022-12-17T06:03:51.179Z,28
2022-12-17T06:04:51.165Z,28
2022-12-17T06:05:51.157Z,28
2022-12-17T06:06:51.190Z,28
2022-12-17T06:07:51.132Z,28
2022-12-17T06:08:51.223Z,28
2022-12-17T06:09:51.111Z,28
2022-12-17T06:10:51.105Z,28
2022-12-17T06:11:51.090Z,48
2022-12-17T06:12:51.084Z,24
2022-12-17T06:13:51.070Z,24
2022-12-17T06:14:51.082Z,28
2022-12-17T06:15:51.052Z,28
2022-12-17T06:16:51.044Z,24
2022-12-17T06:17:51.039Z,28
2022-12-17T06:18:51.019Z,24
2022-12-17T06:19:51.010Z,24
2022-12-17T06:20:51.074Z,28
2022-12-17T06:21:50.999Z,28
2022-12-17T06:22:50.998Z,28
2022-12-17T06:23:50.973Z,24
2022-12-17T06:24:50.971Z,24
2022-12-17T06:25:50.954Z,24
2022-12-17T06:26:50.940Z,24
2022-12-17T06:27:50.934Z,24
2022-12-17T06:28:50.938Z,24
2022-12-17T06:29:50.948Z,24
2022-12-17T06:30:50.902Z,24
2022-12-17T06:31:50.893Z,24
2022-12-17T06:32:50.880Z,24
2022-12-17T06:33:50.900Z,24
2022-12-17T06:34:50.946Z,24
2022-12-17T06:35:50.849Z,24
2022-12-17T06:36:50.888Z,24
2022-12-17T06:37:50.845Z,24
2022-12-17T06:38:50.825Z,24
2022-12-17T06:39:50.807Z,24
2022-12-17T06:40:50.799Z,24
2022-12-17T06:41:50.790Z,28
2022-12-17T06:42:50.782Z,24
2022-12-17T06:43:50.765Z,24
2022-12-17T06:44:50.766Z,24
2022-12-17T06:45:50.755Z,24
2022-12-17T06:46:50.737Z,24
2022-12-17T06:47:50.950Z,28
2022-12-17T06:48:50.724Z,28
2022-12-17T06:49:50.712Z,28
2022-12-17T06:50:50.692Z,24
2022-12-17T06:51:50.691Z,24
2022-12-17T06:52:50.679Z,28
2022-12-17T06:53:50.666Z,24
2022-12-17T06:54:50.714Z,28
2022-12-17T06:55:50.654Z,28
2022-12-17T06:56:50.641Z,32
2022-12-17T06:57:50.632Z,28
2022-12-17T06:58:50.632Z,32
2022-12-17T06:59:50.630Z,32
2022-12-17T07:00:50.599Z,32
2022-12-17T07:01:50.587Z,32
2022-12-17T07:02:50.570Z,28
2022-12-17T07:03:50.568Z,24
2022-12-17T07:04:50.570Z,28
2022-12-17T07:05:50.545Z,32
2022-12-17T07:06:50.534Z,36
2022-12-17T07:07:50.539Z,36
2022-12-17T07:08:50.517Z,40
2022-12-17T07:09:50.508Z,40
2022-12-17T07:10:50.515Z,48
2022-12-17T07:11:50.485Z,52
2022-12-17T07:12:50.476Z,56
2022-12-17T07:13:50.467Z,64
2022-12-17T07:14:50.503Z,64
2022-12-17T07:15:50.453Z,72
2022-12-17T07:16:50.431Z,80
2022-12-17T07:17:50.426Z,84
2022-12-17T07:18:50.420Z,96
2022-12-17T07:19:50.462Z,104
2022-12-17T07:20:50.390Z,112
2022-12-17T07:21:50.390Z,120
2022-12-17T07:22:50.377Z,132
2022-12-17T07:23:50.365Z,140
2022-12-17T07:24:50.381Z,152
2022-12-17T07:25:50.366Z,164
2022-12-17T07:26:50.341Z,160
2022-12-17T07:27:50.342Z,172
2022-12-17T07:28:50.320Z,188
2022-12-17T07:29:50.304Z,200
2022-12-17T07:30:50.297Z,216
2022-12-17T07:31:50.355Z,228
2022-12-17T07:32:50.274Z,244
2022-12-17T07:33:50.325Z,260
2022-12-17T07:34:50.267Z,276
2022-12-17T07:35:50.266Z,292
2022-12-17T07:36:50.236Z,308
2022-12-17T07:37:50.223Z,320
2022-12-17T07:38:50.216Z,340
2022-12-17T07:39:50.204Z,356
2022-12-17T07:40:50.220Z,372
2022-12-17T07:41:50.183Z,392
2022-12-17T07:42:50.171Z,408
2022-12-17T07:43:50.210Z,424
2022-12-17T07:44:50.182Z,444
2022-12-17T07:45:50.151Z,468
2022-12-17T07:46:50.138Z,492
2022-12-17T07:47:50.129Z,512
2022-12-17T07:48:50.110Z,532
2022-12-17T07:49:50.105Z,556
2022-12-17T07:50:50.099Z,572
2022-12-17T07:51:50.082Z,592
2022-12-17T07:52:50.075Z,616
2022-12-17T07:53:50.075Z,632
2022-12-17T07:54:50.056Z,652
2022-12-17T07:55:50.081Z,672
2022-12-17T07:56:50.035Z,692
2022-12-17T07:57:50.020Z,716
2022-12-17T07:58:50.026Z,736
2022-12-17T07:59:50.005Z,756
2022-12-17T08:00:49.999Z,776
2022-12-17T08:01:50.031Z,796
2022-12-17T08:02:49.971Z,812
2022-12-17T08:03:49.988Z,836
2022-12-17T08:04:49.971Z,852
2022-12-17T08:05:49.942Z,868
2022-12-17T08:06:49.994Z,888
2022-12-17T08:07:49.920Z,908
2022-12-17T08:08:49.915Z,928
2022-12-17T08:09:49.905Z,948
2022-12-17T08:10:49.967Z,968
2022-12-17T08:11:49.912Z,984
2022-12-17T08:12:49.877Z,1000
2022-12-17T08:13:49.862Z,1024
2022-12-17T08:14:49.851Z,1040
2022-12-17T08:15:49.838Z,1060
2022-12-17T08:16:49.831Z,1076
2022-12-17T08:17:49.820Z,1100
2022-12-17T08:18:49.810Z,1120
2022-12-17T08:19:49.807Z,1140
2022-12-17T08:20:49.788Z,1164
2022-12-17T08:21:49.779Z,1180
2022-12-17T08:22:49.774Z,1200
2022-12-17T08:23:49.764Z,1212
2022-12-17T08:24:49.747Z,1232
2022-12-17T08:25:49.735Z,1252
2022-12-17T08:26:49.774Z,1272
2022-12-17T08:27:49.718Z,1292
2022-12-17T08:28:49.712Z,1312
2022-12-17T08:29:49.701Z,1328
2022-12-17T08:30:49.688Z,1344
2022-12-17T08:31:49.678Z,1364
2022-12-17T08:32:49.668Z,1384
2022-12-17T08:33:49.662Z,1400
2022-12-17T08:34:50.498Z,1420
2022-12-17T08:35:49.832Z,1440
2022-12-17T08:36:49.635Z,1456
2022-12-17T08:37:49.636Z,1476
2022-12-17T08:38:49.644Z,1492
2022-12-17T08:39:49.597Z,1512
2022-12-17T08:40:49.591Z,1532
2022-12-17T08:41:49.578Z,1552
2022-12-17T08:42:49.569Z,1572
2022-12-17T08:43:49.560Z,1592
2022-12-17T08:44:49.598Z,1620
2022-12-17T08:45:49.542Z,1644
2022-12-17T08:46:49.537Z,1660
2022-12-17T08:47:49.516Z,1688
2022-12-17T08:48:49.509Z,1708
2022-12-17T08:49:49.499Z,1748
2022-12-17T08:50:49.556Z,1772
2022-12-17T08:51:49.479Z,1796
2022-12-17T08:52:49.495Z,1808
2022-12-17T08:53:49.463Z,1824
2022-12-17T08:54:49.449Z,1860
2022-12-17T08:55:49.447Z,1880
2022-12-17T08:56:49.432Z,1912
2022-12-17T08:57:49.415Z,1936
2022-12-17T08:58:49.405Z,1956
2022-12-17T08:59:49.400Z,1980
2022-12-17T09:00:49.391Z,2012
2022-12-17T09:01:49.378Z,2040
2022-12-17T09:02:49.369Z,2064
2022-12-17T09:03:49.377Z,2088
2022-12-17T09:04:49.351Z,2104
2022-12-17T09:05:49.405Z,2128
2022-12-17T09:06:49.328Z,2156
2022-12-17T09:07:49.320Z,2180
2022-12-17T09:08:49.307Z,2192
2022-12-17T09:09:49.299Z,2212
2022-12-17T09:10:49.282Z,2240
2022-12-17T09:11:49.275Z,2276
2022-12-17T09:12:49.316Z,2304
2022-12-17T09:13:49.255Z,2332
2022-12-17T09:14:49.273Z,2360
2022-12-17T09:15:49.243Z,2372
2022-12-17T09:16:49.547Z,2376
2022-12-17T09:17:49.213Z,2428
2022-12-17T09:18:49.208Z,2448
2022-12-17T09:19:49.194Z,2468
2022-12-17T09:20:49.214Z,2480
2022-12-17T09:21:49.176Z,2500
2022-12-17T09:22:49.170Z,2528
2022-12-17T09:23:49.151Z,2532
2022-12-17T09:24:49.140Z,2552
2022-12-17T09:25:49.136Z,2564
2022-12-17T09:26:49.165Z,2604
2022-12-17T09:27:49.121Z,2608
2022-12-17T09:28:49.111Z,2624
2022-12-17T09:29:49.143Z,2660
2022-12-17T09:30:49.084Z,2680
2022-12-17T09:31:49.122Z,2712
2022-12-17T09:32:49.063Z,2772
2022-12-17T09:33:49.047Z,2936
2022-12-17T09:34:49.040Z,3188
2022-12-17T09:35:49.026Z,3244
2022-12-17T09:36:49.084Z,3068
2022-12-17T09:37:49.008Z,3060
2022-12-17T09:38:49.063Z,3188
2022-12-17T09:39:48.991Z,3204
2022-12-17T09:40:48.983Z,3136
2022-12-17T09:41:49.086Z,3152
2022-12-17T09:42:48.952Z,3072
2022-12-17T09:43:48.946Z,3056
2022-12-17T09:44:48.944Z,3056
2022-12-17T09:45:48.933Z,3088
2022-12-17T09:46:48.922Z,3108
2022-12-17T09:47:48.907Z,3112
2022-12-17T09:48:48.890Z,3164
2022-12-17T09:49:48.878Z,3164
2022-12-17T09:50:48.883Z,3176
2022-12-17T09:51:48.868Z,3200
2022-12-17T09:52:48.851Z,3252
2022-12-17T09:53:48.840Z,3268
2022-12-17T09:54:48.833Z,3300
2022-12-17T09:55:48.828Z,3336
2022-12-17T09:56:48.813Z,3360
2022-12-17T09:57:48.806Z,3372
2022-12-17T09:58:48.792Z,3412
2022-12-17T09:59:48.836Z,3424
2022-12-17T10:00:48.772Z,3476
2022-12-17T10:01:48.766Z,3516
2022-12-17T10:02:48.750Z,3576
2022-12-17T10:03:48.744Z,3612
2022-12-17T10:04:48.735Z,3708
2022-12-17T10:05:48.728Z,3712
2022-12-17T10:06:48.721Z,3748
2022-12-17T10:07:48.699Z,3784
2022-12-17T10:08:48.698Z,3832
2022-12-17T10:09:48.687Z,3836
2022-12-17T10:10:48.670Z,3888
2022-12-17T10:11:48.658Z,3892
2022-12-17T10:12:48.678Z,3904
2022-12-17T10:13:49.498Z,3916
2022-12-17T10:14:48.672Z,3908
2022-12-17T10:15:48.632Z,3956
2022-12-17T10:16:48.669Z,4000
2022-12-17T10:17:48.599Z,4024
2022-12-17T10:18:48.584Z,4052
2022-12-17T10:19:48.573Z,4064
2022-12-17T10:20:48.562Z,4108
2022-12-17T10:21:48.583Z,4176
2022-12-17T10:22:48.547Z,4256
2022-12-17T10:23:48.535Z,4268
2022-12-17T10:24:48.521Z,4244
2022-12-17T10:25:48.517Z,4244
2022-12-17T10:26:48.608Z,4228
2022-12-17T10:27:48.503Z,4216
2022-12-17T10:28:48.482Z,4216
2022-12-17T10:29:48.475Z,4236
2022-12-17T10:30:48.487Z,4196
2022-12-17T10:31:48.511Z,4192
2022-12-17T10:32:48.466Z,4224
2022-12-17T10:33:48.459Z,4212
2022-12-17T10:34:48.421Z,4208
2022-12-17T10:35:48.413Z,4224
2022-12-17T10:36:48.429Z,4248
2022-12-17T10:37:48.404Z,4232
2022-12-17T10:38:48.383Z,4252
2022-12-17T10:39:48.672Z,4240
2022-12-17T10:40:48.361Z,4260
2022-12-17T10:41:48.402Z,4252
2022-12-17T10:42:48.378Z,4272
2022-12-17T10:43:48.390Z,4252
2022-12-17T10:44:48.377Z,4256
2022-12-17T10:45:48.313Z,4244
2022-12-17T10:46:48.324Z,4256
2022-12-17T10:47:48.574Z,4292
2022-12-17T10:48:48.296Z,4288
2022-12-17T10:49:48.265Z,4356
2022-12-17T10:50:48.295Z,4332
2022-12-17T10:51:48.243Z,4300
2022-12-17T10:52:48.243Z,4336
2022-12-17T10:53:48.226Z,4320
2022-12-17T10:54:48.281Z,4312
2022-12-17T10:55:48.202Z,4292
2022-12-17T10:56:48.208Z,4312
2022-12-17T10:57:48.229Z,4352
2022-12-17T10:58:48.173Z,4280
2022-12-17T10:59:48.162Z,4272
2022-12-17T11:00:48.155Z,4244
2022-12-17T11:01:48.200Z,4224
2022-12-17T11:02:48.129Z,4204
2022-12-17T11:03:48.140Z,4248
2022-12-17T11:04:48.158Z,4196
2022-12-17T11:05:48.160Z,4152
2022-12-17T11:06:48.092Z,4232
2022-12-17T11:07:48.140Z,4280
2022-12-17T11:08:48.075Z,4224
2022-12-17T11:09:48.070Z,4264
2022-12-17T11:10:48.045Z,4140
2022-12-17T11:11:48.038Z,4172
2022-12-17T11:12:48.041Z,4260
2022-12-17T11:13:48.013Z,4236
2022-12-17T11:14:48.038Z,4232
2022-12-17T11:15:48.018Z,4420
2022-12-17T11:16:47.990Z,4484
2022-12-17T11:17:47.972Z,4500
2022-12-17T11:18:47.968Z,4432
2022-12-17T11:19:47.975Z,4500
2022-12-17T11:20:47.949Z,4324
2022-12-17T11:21:47.936Z,4492
2022-12-17T11:22:47.919Z,4568
2022-12-17T11:23:47.987Z,4616
2022-12-17T11:24:48.100Z,4664
2022-12-17T11:25:48.082Z,4624
2022-12-17T11:26:47.890Z,4416
2022-12-17T11:27:48.096Z,4540
2022-12-17T11:28:48.068Z,4784
2022-12-17T11:29:47.857Z,4708
2022-12-17T11:30:47.842Z,4768
2022-12-17T11:31:47.829Z,4960
2022-12-17T11:32:47.864Z,4840
2022-12-17T11:33:47.811Z,5364
2022-12-17T11:34:47.802Z,5616
2022-12-17T11:35:48.479Z,7192
2022-12-17T11:36:47.787Z,42336
2022-12-17T11:37:47.765Z,80960
2022-12-17T11:38:47.800Z,83936
2022-12-17T11:39:47.818Z,84704
2022-12-17T11:40:47.736Z,84640
2022-12-17T11:41:47.731Z,83680
2022-12-17T11:42:47.714Z,84096
2022-12-17T11:43:47.711Z,84768
2022-12-17T11:44:47.689Z,84256
2022-12-17T11:45:47.696Z,82432
2022-12-17T11:46:47.707Z,82080
2022-12-17T11:47:47.881Z,79904
2022-12-17T11:48:47.652Z,80640
2022-12-17T11:49:47.641Z,80832
2022-12-17T11:50:47.648Z,82240
2022-12-17T11:51:47.619Z,81600
2022-12-17T11:52:47.609Z,80576
2022-12-17T11:53:47.591Z,82272
2022-12-17T11:54:47.583Z,82336
2022-12-17T11:55:47.621Z,78496
2022-12-17T11:56:47.639Z,79296
2022-12-17T11:57:47.555Z,80000
2022-12-17T11:58:47.545Z,80320
2022-12-17T11:59:47.541Z,80000
2022-12-17T12:00:47.701Z,81856
2022-12-17T12:01:47.553Z,82464
2022-12-17T12:02:47.582Z,76192
2022-12-17T12:03:47.487Z,80032
2022-12-17T12:04:47.475Z,83680
2022-12-17T12:05:47.465Z,81728
2022-12-17T12:06:47.454Z,83168
2022-12-17T12:07:47.457Z,85632
2022-12-17T12:08:47.445Z,83680
2022-12-17T12:09:47.426Z,82464
2022-12-17T12:10:47.413Z,82880
2022-12-17T12:11:47.420Z,81344
2022-12-17T12:12:47.452Z,79520
2022-12-17T12:13:47.382Z,78976
2022-12-17T12:14:47.372Z,81056
2022-12-17T12:15:47.355Z,83392
2022-12-17T12:16:47.346Z,80768
2022-12-17T12:17:47.340Z,77504
2022-12-17T12:18:47.328Z,72576
2022-12-17T12:19:47.327Z,74048
2022-12-17T12:20:47.308Z,72160
2022-12-17T12:21:47.297Z,39936
2022-12-17T12:22:47.299Z,7112
2022-12-17T12:23:47.279Z,4148
2022-12-17T12:24:47.269Z,4024
2022-12-17T12:25:47.253Z,3928
2022-12-17T12:26:47.247Z,3928
2022-12-17T12:27:47.228Z,3904
2022-12-17T12:28:47.246Z,3848
2022-12-17T12:29:47.230Z,3836
2022-12-17T12:30:47.335Z,3804
2022-12-17T12:31:47.187Z,3776
2022-12-17T12:32:47.182Z,3728
2022-12-17T12:33:47.167Z,3696
2022-12-17T12:34:47.222Z,3660
2022-12-17T12:35:47.144Z,3644
2022-12-17T12:36:47.143Z,3600
2022-12-17T12:37:47.123Z,3572
2022-12-17T12:38:47.115Z,3528
2022-12-17T12:39:47.116Z,3492
2022-12-17T12:40:47.106Z,3480
2022-12-17T12:41:47.099Z,3460
2022-12-17T12:42:47.122Z,3404
2022-12-17T12:43:47.142Z,3364
2022-12-17T12:44:47.070Z,3336
2022-12-17T12:45:47.041Z,3300
2022-12-17T12:46:47.026Z,3280
2022-12-17T12:47:47.020Z,3252
2022-12-17T12:48:47.021Z,3224
2022-12-17T12:49:47.158Z,3200
2022-12-17T12:50:46.991Z,3156
2022-12-17T12:51:46.980Z,3128
2022-12-17T12:52:46.963Z,3116
2022-12-17T12:53:46.955Z,3092
2022-12-17T12:54:46.947Z,3068
2022-12-17T12:55:46.936Z,3016
2022-12-17T12:56:46.922Z,3004
2022-12-17T12:57:47.003Z,3012
2022-12-17T12:58:46.903Z,2992
2022-12-17T12:59:46.885Z,2980
2022-12-17T13:00:46.914Z,3000
2022-12-17T13:01:46.871Z,2960
2022-12-17T13:02:46.882Z,2924
2022-12-17T13:03:46.872Z,2924
2022-12-17T13:04:46.847Z,2852
2022-12-17T13:05:46.834Z,2812
2022-12-17T13:06:46.982Z,2764
2022-12-17T13:07:46.845Z,2744
2022-12-17T13:08:46.796Z,2700
2022-12-17T13:09:46.783Z,2700
2022-12-17T13:10:46.773Z,2680
2022-12-17T13:11:46.765Z,2668
2022-12-17T13:12:46.757Z,2648
2022-12-17T13:13:46.761Z,2632
2022-12-17T13:14:46.773Z,2592
2022-12-17T13:15:46.743Z,2544
2022-12-17T13:16:46.710Z,2528
2022-12-17T13:17:46.725Z,2492
2022-12-17T13:18:46.745Z,2480
2022-12-17T13:19:46.680Z,2460
2022-12-17T13:20:46.693Z,2440
2022-12-17T13:21:46.660Z,2416
2022-12-17T13:22:46.650Z,2392
2022-12-17T13:23:46.678Z,2376
2022-12-17T13:24:46.630Z,2352
2022-12-17T13:25:46.626Z,2336
2022-12-17T13:26:46.605Z,2332
2022-12-17T13:27:46.607Z,2304
2022-12-17T13:28:46.634Z,2272
2022-12-17T13:29:46.629Z,2260
2022-12-17T13:30:46.563Z,2244
2022-12-17T13:31:46.575Z,2232
2022-12-17T13:32:46.548Z,2232
2022-12-17T13:33:46.533Z,2200
2022-12-17T13:34:46.528Z,2196
2022-12-17T13:35:46.557Z,2172
2022-12-17T13:36:55.183Z,2168
2022-12-17T13:37:46.493Z,2132
2022-12-17T13:38:46.508Z,2112
2022-12-17T13:39:46.479Z,2096
2022-12-17T13:40:46.463Z,2076
2022-12-17T13:41:46.454Z,2044
2022-12-17T13:42:46.443Z,2012
2022-12-17T13:43:46.456Z,2004
2022-12-17T13:44:46.423Z,1980
2022-12-17T13:45:46.414Z,1960
2022-12-17T13:46:46.407Z,1940
2022-12-17T13:47:46.387Z,1924
2022-12-17T13:48:46.378Z,1928